createdAt,value
2023-03-21T00:01:53.387Z,2.85
2023-03-21T00:04:21.894Z,4.70
2023-03-21T00:06:49.820Z,4.07
2023-03-21T00:09:17.991Z,3.33
2023-03-21T00:11:46.446Z,4.38
2023-03-21T00:14:19.950Z,4.03
2023-03-21T00:16:50.631Z,3.50
2023-03-21T00:19:20.770Z,5.75
2023-03-21T00:22:08.856Z,4.30
2023-03-21T00:24:38.076Z,2.97
2023-03-21T00:27:30.312Z,3.67
2023-03-21T00:29:56.539Z,4.25
2023-03-21T00:32:24.695Z,4.25
2023-03-21T00:35:11.734Z,5.20
2023-03-21T00:37:43.035Z,4.10
2023-03-21T00:40:26.570Z,3.83
2023-03-21T00:42:57.212Z,3.65
2023-03-21T00:45:26.297Z,2.55
2023-03-21T00:47:55.500Z,4.22
2023-03-21T00:50:25.512Z,5.75
2023-03-21T00:52:53.464Z,3.90
2023-03-21T00:55:22.127Z,4.20
2023-03-21T00:58:01.136Z,3.55
2023-03-21T01:00:30.395Z,3.20
2023-03-21T01:03:11.269Z,4.80
2023-03-21T01:06:07.595Z,3.90
2023-03-21T01:08:52.185Z,2.63
2023-03-21T01:11:23.633Z,4.30
2023-03-21T01:14:04.115Z,2.35
2023-03-21T01:16:39.649Z,2.83
2023-03-21T01:19:14.929Z,3.47
2023-03-21T01:21:47.809Z,3.72
2023-03-21T01:24:15.742Z,4.30
2023-03-21T01:26:43.670Z,3.95
2023-03-21T01:29:11.590Z,2.80
2023-03-21T01:31:39.851Z,3.72
2023-03-21T01:34:08.770Z,3.45
2023-03-21T01:36:36.848Z,3.30
2023-03-21T01:39:09.578Z,4.03
2023-03-21T01:41:44.041Z,4.70
2023-03-21T01:44:27.876Z,3.28
2023-03-21T01:47:09.854Z,3.40
2023-03-21T01:50:04.910Z,3.00
2023-03-21T01:52:54.423Z,2.92
2023-03-21T01:55:32.826Z,4.18
2023-03-21T01:58:10.188Z,3.20
2023-03-21T02:01:03.079Z,4.75
2023-03-21T02:03:50.388Z,3.50
2023-03-21T02:06:50.079Z,3.10
2023-03-21T02:09:33.680Z,3.70
2023-03-21T02:12:04.188Z,3.17
2023-03-21T02:14:35.832Z,2.10
2023-03-21T02:17:31.899Z,2.47
2023-03-21T02:20:30.423Z,2.03
2023-03-21T02:23:39.411Z,2.45
2023-03-21T02:26:42.360Z,3.20
2023-03-21T02:29:32.691Z,3.13
2023-03-21T02:32:20.230Z,2.95
2023-03-21T02:35:12.990Z,2.28
2023-03-21T02:37:55.222Z,2.72
2023-03-21T02:40:34.050Z,2.83
2023-03-21T02:43:14.065Z,2.35
2023-03-21T02:45:52.832Z,2.30
2023-03-21T02:48:33.101Z,2.30
2023-03-21T02:51:05.643Z,2.75
2023-03-21T02:53:40.307Z,2.88
2023-03-21T02:56:11.321Z,4.88
2023-03-21T02:58:45.932Z,2.45
2023-03-21T03:01:13.885Z,3.00
2023-03-21T03:03:48.729Z,3.13
2023-03-21T03:06:19.825Z,3.78
2023-03-21T03:09:05.117Z,3.03
2023-03-21T03:11:37.355Z,3.22
2023-03-21T03:14:50.063Z,2.63
2023-03-21T03:17:35.967Z,2.20
2023-03-21T03:20:25.461Z,2.60
2023-03-21T03:23:04.988Z,4.75
2023-03-21T03:25:43.187Z,3.17
2023-03-21T03:28:17.522Z,2.90
2023-03-21T03:31:01.119Z,5.32
2023-03-21T03:33:41.348Z,2.92
2023-03-21T03:36:21.567Z,2.90
2023-03-21T03:38:53.347Z,2.83
2023-03-21T03:41:27.596Z,2.70
2023-03-21T03:44:03.623Z,3.75
2023-03-21T03:46:41.048Z,4.47
2023-03-21T03:49:13.143Z,4.13
2023-03-21T03:51:50.996Z,3.08
2023-03-21T03:54:32.276Z,3.10
2023-03-21T03:57:04.410Z,2.95
2023-03-21T03:59:34.587Z,2.40
2023-03-21T04:02:14.830Z,2.88
2023-03-21T04:04:43.005Z,2.40
2023-03-21T04:07:11.097Z,2.03
2023-03-21T04:09:44.628Z,2.97
2023-03-21T04:12:16.801Z,2.65
2023-03-21T04:15:09.468Z,2.72
2023-03-21T04:17:39.477Z,3.38
2023-03-21T04:20:13.071Z,3.90
2023-03-21T04:22:43.383Z,3.30
2023-03-21T04:25:12.283Z,2.35
2023-03-21T04:27:42.338Z,3.72
2023-03-21T04:30:35.748Z,1.70
2023-03-21T04:33:29.980Z,3.67
2023-03-21T04:36:01.152Z,3.30
2023-03-21T04:38:32.304Z,1.83
2023-03-21T04:41:04.227Z,4.03
2023-03-21T04:43:33.634Z,2.97
2023-03-21T04:46:01.609Z,2.78
2023-03-21T04:48:29.874Z,3.35
2023-03-21T04:51:00.173Z,2.90
2023-03-21T04:53:29.964Z,3.50
2023-03-21T04:55:58.155Z,2.05
2023-03-21T04:58:26.127Z,2.92
2023-03-21T05:00:57.295Z,1.70
2023-03-21T05:03:25.341Z,2.85
2023-03-21T05:05:53.334Z,2.75
2023-03-21T05:08:21.271Z,2.33
2023-03-21T05:10:49.205Z,1.77
2023-03-21T05:13:17.204Z,3.13
2023-03-21T05:15:45.250Z,2.75
2023-03-21T05:18:15.266Z,2.15
2023-03-21T05:21:00.436Z,2.35
2023-03-21T05:23:31.482Z,2.80
2023-03-21T05:25:59.729Z,2.15
2023-03-21T05:28:39.972Z,1.95
2023-03-21T05:31:08.834Z,2.20
2023-03-21T05:33:39.824Z,2.33
2023-03-21T05:36:08.642Z,2.65
2023-03-21T05:38:36.623Z,2.50
2023-03-21T05:41:05.921Z,1.60
2023-03-21T05:43:33.876Z,3.47
2023-03-21T05:46:01.984Z,2.40
2023-03-21T05:48:31.623Z,3.35
2023-03-21T05:51:10.665Z,3.72
2023-03-21T05:53:38.700Z,1.52
2023-03-21T05:56:12.110Z,2.10
2023-03-21T05:58:46.533Z,3.00
2023-03-21T06:01:14.961Z,2.30
2023-03-21T06:03:48.816Z,2.08
2023-03-21T06:06:20.062Z,2.65
2023-03-21T06:09:06.583Z,3.15
2023-03-21T06:11:36.966Z,2.60
2023-03-21T06:14:23.425Z,1.95
2023-03-21T06:17:13.995Z,3.20
2023-03-21T06:19:48.151Z,2.03
2023-03-21T06:22:25.416Z,3.10
2023-03-21T06:24:53.372Z,3.33
2023-03-21T06:27:21.271Z,4.05
2023-03-21T06:29:53.889Z,2.78
2023-03-21T06:32:24.932Z,2.47
2023-03-21T06:34:58.325Z,2.25
2023-03-21T06:37:27.739Z,2.30
2023-03-21T06:39:56.209Z,2.00
2023-03-21T06:42:25.175Z,1.90
2023-03-21T06:45:01.957Z,2.83
2023-03-21T06:47:30.321Z,1.95
2023-03-21T06:49:58.415Z,2.00
2023-03-21T06:52:27.962Z,2.40
2023-03-21T06:54:56.245Z,2.20
2023-03-21T06:57:28.579Z,1.85
2023-03-21T06:59:56.746Z,2.20
2023-03-21T07:02:25.894Z,2.55
2023-03-21T07:05:02.866Z,1.92
2023-03-21T07:07:33.395Z,1.98
2023-03-21T07:10:01.376Z,1.77
2023-03-21T07:12:35.838Z,1.63
2023-03-21T07:15:17.495Z,2.30
2023-03-21T07:17:46.980Z,1.90
2023-03-21T07:20:15.031Z,2.15
2023-03-21T07:22:44.626Z,1.42
2023-03-21T07:25:12.841Z,1.80
2023-03-21T07:27:42.222Z,1.73
2023-03-21T07:30:14.369Z,1.70
2023-03-21T07:32:42.370Z,1.73
2023-03-21T07:35:13.329Z,1.98
2023-03-21T07:37:44.364Z,2.08
2023-03-21T07:40:16.267Z,2.53
2023-03-21T07:42:45.309Z,1.48
2023-03-21T07:45:16.446Z,2.13
2023-03-21T07:47:46.387Z,3.03
2023-03-21T07:50:14.942Z,2.25
2023-03-21T07:52:44.222Z,2.25
2023-03-21T07:55:12.783Z,1.33
2023-03-21T07:57:40.979Z,2.35
2023-03-21T08:00:10.975Z,1.70
2023-03-21T08:02:43.301Z,2.38
2023-03-21T08:05:12.053Z,1.67
2023-03-21T08:07:39.968Z,2.00
2023-03-21T08:10:11.539Z,2.13
2023-03-21T08:12:39.693Z,2.22
2023-03-21T08:15:08.714Z,2.30
2023-03-21T08:17:37.992Z,2.30
2023-03-21T08:20:08.898Z,2.40
2023-03-21T08:22:37.249Z,3.78
2023-03-21T08:25:05.973Z,2.47
2023-03-21T08:27:35.906Z,1.48
2023-03-21T08:30:04.956Z,1.98
2023-03-21T08:32:33.686Z,1.67
2023-03-21T08:35:02.681Z,1.75
2023-03-21T08:37:31.068Z,1.90
2023-03-21T08:40:01.190Z,2.25
2023-03-21T08:42:29.078Z,2.15
2023-03-21T08:44:58.365Z,2.75
2023-03-21T08:47:26.271Z,2.42
2023-03-21T08:49:57.974Z,2.40
2023-03-21T08:52:27.860Z,2.10
2023-03-21T08:54:55.967Z,2.13
2023-03-21T08:57:24.035Z,3.65
2023-03-21T08:59:52.005Z,1.95
2023-03-21T09:02:22.990Z,1.45
2023-03-21T09:04:54.774Z,2.58
2023-03-21T09:07:26.386Z,2.92
2023-03-21T09:10:14.936Z,2.40
2023-03-21T09:12:42.543Z,2.08
2023-03-21T09:15:12.157Z,1.05
2023-03-21T09:17:42.429Z,1.58
2023-03-21T09:20:18.714Z,2.53
2023-03-21T09:22:47.694Z,1.67
2023-03-21T09:25:16.394Z,1.95
2023-03-21T09:27:45.788Z,2.45
2023-03-21T09:30:16.068Z,1.50
2023-03-21T09:32:48.611Z,1.60
2023-03-21T09:35:17.915Z,2.58
2023-03-21T09:37:47.255Z,1.75
2023-03-21T09:40:21.272Z,1.52
2023-03-21T09:43:02.793Z,1.95
2023-03-21T09:45:38.466Z,1.58
2023-03-21T09:48:19.978Z,1.65
2023-03-21T09:50:51.127Z,2.83
2023-03-21T09:53:27.029Z,1.45
2023-03-21T09:55:54.992Z,1.75
2023-03-21T09:58:29.043Z,1.83
2023-03-21T10:01:07.986Z,1.40
2023-03-21T10:03:37.731Z,1.40
2023-03-21T10:06:12.205Z,2.42
2023-03-21T10:08:42.160Z,1.17
2023-03-21T10:11:14.484Z,1.20
2023-03-21T10:13:45.598Z,1.85
2023-03-21T10:16:16.053Z,1.55
2023-03-21T10:18:46.713Z,1.63
2023-03-21T10:21:47.398Z,1.20
2023-03-21T10:24:12.291Z,1.30
2023-03-21T10:26:40.601Z,1.75
2023-03-21T10:29:08.685Z,2.00
2023-03-21T10:31:36.848Z,1.65
2023-03-21T10:34:13.163Z,1.52
2023-03-21T10:36:41.142Z,1.45
2023-03-21T10:39:19.221Z,1.77
2023-03-21T10:41:47.302Z,1.42
2023-03-21T10:44:18.244Z,1.67
2023-03-21T10:46:53.198Z,1.70
2023-03-21T10:49:23.154Z,1.63
2023-03-21T10:51:54.200Z,2.35
2023-03-21T10:54:27.764Z,1.83
2023-03-21T10:56:59.080Z,1.83
2023-03-21T10:59:29.516Z,2.03
2023-03-21T11:01:59.481Z,1.83
2023-03-21T11:04:30.901Z,1.75
2023-03-21T11:07:01.844Z,2.20
2023-03-21T11:09:46.761Z,2.47
2023-03-21T11:12:16.821Z,2.35
2023-03-21T11:14:47.567Z,2.03
2023-03-21T11:17:24.209Z,1.85
2023-03-21T11:19:55.290Z,2.10
2023-03-21T11:22:25.827Z,2.38
2023-03-21T11:24:58.017Z,1.80
2023-03-21T11:27:29.232Z,1.98
2023-03-21T11:29:59.849Z,1.63
2023-03-21T11:32:33.814Z,1.98
2023-03-21T11:35:05.980Z,1.42
2023-03-21T11:37:38.697Z,1.55
2023-03-21T11:40:19.110Z,1.65
2023-03-21T11:42:49.720Z,1.90
2023-03-21T11:45:20.375Z,1.30
2023-03-21T11:47:49.357Z,1.75
2023-03-21T11:50:28.557Z,1.35
2023-03-21T11:53:24.496Z,2.17
2023-03-21T11:56:05.540Z,1.65
2023-03-21T11:58:45.089Z,1.80
2023-03-21T12:01:19.645Z,2.03
2023-03-21T12:04:04.501Z,1.42
2023-03-21T12:06:38.321Z,1.83
2023-03-21T12:09:21.917Z,1.00
2023-03-21T12:12:01.587Z,1.55
2023-03-21T12:14:38.202Z,2.10
2023-03-21T12:17:15.412Z,1.67
2023-03-21T12:19:58.942Z,2.97
2023-03-21T12:22:45.940Z,2.13
2023-03-21T12:25:18.582Z,2.50
2023-03-21T12:28:02.799Z,1.52
2023-03-21T12:30:43.627Z,1.65
2023-03-21T12:33:23.356Z,2.00
2023-03-21T12:36:17.695Z,1.70
2023-03-21T12:38:56.908Z,2.38
2023-03-21T12:41:27.370Z,2.45
2023-03-21T12:44:01.692Z,1.45
2023-03-21T12:46:37.459Z,2.30
2023-03-21T12:49:11.119Z,1.73
2023-03-21T12:51:43.264Z,2.25
2023-03-21T12:54:22.222Z,2.00
2023-03-21T12:56:55.248Z,1.40
2023-03-21T12:59:34.674Z,1.75
2023-03-21T13:02:21.160Z,1.75
2023-03-21T13:05:00.054Z,2.20
2023-03-21T13:07:32.462Z,2.00
2023-03-21T13:10:03.962Z,2.25
2023-03-21T13:12:46.584Z,1.13
2023-03-21T13:15:27.704Z,1.90
2023-03-21T13:18:05.696Z,1.83
2023-03-21T13:20:45.994Z,2.85
2023-03-21T13:23:14.584Z,1.45
2023-03-21T13:25:49.670Z,1.63
2023-03-21T13:28:21.915Z,2.55
2023-03-21T13:30:50.965Z,2.95
2023-03-21T13:33:24.616Z,2.30
2023-03-21T13:36:05.265Z,1.75
2023-03-21T13:38:34.634Z,1.45
2023-03-21T13:41:10.344Z,2.58
2023-03-21T13:43:44.885Z,1.85
2023-03-21T13:46:16.017Z,1.73
2023-03-21T13:48:59.984Z,1.80
2023-03-21T13:51:46.743Z,2.22
2023-03-21T13:54:24.262Z,2.35
2023-03-21T13:57:01.146Z,3.30
2023-03-21T13:59:48.438Z,1.27
2023-03-21T14:02:24.790Z,1.80
2023-03-21T14:05:05.388Z,2.10
2023-03-21T14:07:36.565Z,1.95
2023-03-21T14:10:09.528Z,2.08
2023-03-21T14:12:43.443Z,1.77
2023-03-21T14:15:19.710Z,3.25
2023-03-21T14:17:52.369Z,2.40
2023-03-21T14:20:23.600Z,2.30
2023-03-21T14:22:51.825Z,2.38
2023-03-21T14:25:21.598Z,1.90
2023-03-21T14:27:54.973Z,2.92
2023-03-21T14:30:26.368Z,2.75
2023-03-21T14:32:57.221Z,2.70
2023-03-21T14:35:26.437Z,2.10
2023-03-21T14:37:54.372Z,3.60
2023-03-21T14:40:24.611Z,1.80
2023-03-21T14:42:55.150Z,1.65
2023-03-21T14:45:32.105Z,1.98
2023-03-21T14:48:01.946Z,3.28
2023-03-21T14:50:37.233Z,1.98
2023-03-21T14:53:13.463Z,2.15
2023-03-21T14:55:48.053Z,1.90
2023-03-21T14:58:19.843Z,2.63
2023-03-21T15:00:50.717Z,2.92
2023-03-21T15:03:25.375Z,2.33
2023-03-21T15:05:55.974Z,2.70
2023-03-21T15:08:26.237Z,2.42
2023-03-21T15:11:08.611Z,3.33
2023-03-21T15:13:41.360Z,1.88
2023-03-21T15:16:12.350Z,2.85
2023-03-21T15:18:45.379Z,1.85
2023-03-21T15:21:18.748Z,2.60
2023-03-21T15:23:48.909Z,2.80
2023-03-21T15:26:18.278Z,2.55
2023-03-21T15:28:49.474Z,1.92
2023-03-21T15:31:20.188Z,2.42
2023-03-21T15:33:49.205Z,1.92
2023-03-21T15:36:20.939Z,1.95
2023-03-21T15:38:49.865Z,2.63
2023-03-21T15:41:28.139Z,2.00
2023-03-21T15:44:08.972Z,2.25
2023-03-21T15:46:42.901Z,3.22
2023-03-21T15:49:18.431Z,2.15
2023-03-21T15:51:52.610Z,1.75
2023-03-21T15:54:25.868Z,3.33
2023-03-21T15:56:55.951Z,1.65
2023-03-21T15:59:28.695Z,2.80
2023-03-21T16:01:56.787Z,1.90
2023-03-21T16:04:25.819Z,1.90
2023-03-21T16:06:59.311Z,2.50
2023-03-21T16:09:28.168Z,2.30
2023-03-21T16:11:57.527Z,5.50
2023-03-21T16:14:28.336Z,9.32
2023-03-21T16:16:57.307Z,15.15
2023-03-21T16:19:27.631Z,11.30
2023-03-21T16:21:56.715Z,6.13
2023-03-21T16:24:24.629Z,8.25
2023-03-21T16:26:53.359Z,7.80
2023-03-21T16:29:21.251Z,8.55
2023-03-21T16:31:50.691Z,7.40
2023-03-21T16:34:18.571Z,6.57
2023-03-21T16:36:47.605Z,6.38
2023-03-21T16:39:19.437Z,6.68
2023-03-21T16:41:47.722Z,4.55
2023-03-21T16:44:15.846Z,5.50
2023-03-21T16:46:43.829Z,5.75
2023-03-21T16:49:23.845Z,5.57
2023-03-21T16:51:52.596Z,5.45
2023-03-21T16:54:20.759Z,4.72
2023-03-21T16:56:51.452Z,5.57
2023-03-21T16:59:19.488Z,7.05
2023-03-21T17:01:48.677Z,3.45
2023-03-21T17:04:19.488Z,5.82
2023-03-21T17:06:50.010Z,3.30
2023-03-21T17:09:21.023Z,4.00
2023-03-21T17:11:49.540Z,5.22
2023-03-21T17:14:18.645Z,4.03
2023-03-21T17:16:47.288Z,3.17
2023-03-21T17:19:17.135Z,4.00
2023-03-21T17:21:49.338Z,4.40
2023-03-21T17:24:20.896Z,4.45
2023-03-21T17:26:48.874Z,2.65
2023-03-21T17:29:17.180Z,4.00
2023-03-21T17:31:47.896Z,3.25
2023-03-21T17:34:16.184Z,3.38
2023-03-21T17:36:49.994Z,3.08
2023-03-21T17:39:21.382Z,3.83
2023-03-21T17:41:49.688Z,3.92
2023-03-21T17:44:17.612Z,3.83
2023-03-21T17:46:46.416Z,2.72
2023-03-21T17:49:16.389Z,3.40
2023-03-21T17:51:46.839Z,3.53
2023-03-21T17:54:16.154Z,5.43
2023-03-21T17:56:44.188Z,3.80
2023-03-21T17:59:14.405Z,3.10
2023-03-21T18:01:43.157Z,3.13
2023-03-21T18:04:11.225Z,2.47
2023-03-21T18:06:40.029Z,3.40
2023-03-21T18:09:11.390Z,4.18
2023-03-21T18:11:41.507Z,2.85
2023-03-21T18:14:19.533Z,2.58
2023-03-21T18:16:54.056Z,4.75
2023-03-21T18:19:23.112Z,3.72
2023-03-21T18:21:51.335Z,3.22
2023-03-21T18:24:19.283Z,2.55
2023-03-21T18:26:48.731Z,3.85
2023-03-21T18:30:19.748Z,4.13
2023-03-21T18:32:08.829Z,3.05
2023-03-21T18:34:39.413Z,3.97
2023-03-21T18:37:08.635Z,3.47
2023-03-21T18:39:38.079Z,2.67
2023-03-21T18:42:12.245Z,2.60
2023-03-21T18:44:48.900Z,2.97
2023-03-21T18:47:18.284Z,2.67
2023-03-21T18:52:34.637Z,2.55
2023-03-21T18:55:02.799Z,2.35
2023-03-21T18:57:36.868Z,4.90
2023-03-21T19:00:12.303Z,4.10
2023-03-21T19:02:47.119Z,2.65
2023-03-21T19:05:16.598Z,2.50
2023-03-21T19:07:44.736Z,2.45
2023-03-21T19:10:18.269Z,4.60
2023-03-21T19:12:49.130Z,2.63
2023-03-21T19:15:19.555Z,2.60
2023-03-21T19:20:36.447Z,2.05
2023-03-21T19:23:06.094Z,2.58
2023-03-21T19:25:34.075Z,3.05
2023-03-21T19:28:03.815Z,2.30
2023-03-21T19:30:31.801Z,2.50
2023-03-21T19:32:59.748Z,2.22
2023-03-21T19:35:28.823Z,2.92
2023-03-21T19:37:56.981Z,3.75
2023-03-21T19:40:24.870Z,1.95
2023-03-21T19:42:52.860Z,1.73
2023-03-21T19:45:22.300Z,1.95
2023-03-21T19:47:50.849Z,3.28
2023-03-21T19:53:07.255Z,1.75
2023-03-21T19:55:36.351Z,2.60
2023-03-21T19:58:06.029Z,2.90
2023-03-21T20:00:36.823Z,1.52
2023-03-21T20:03:08.524Z,1.98
2023-03-21T20:05:36.591Z,2.95
2023-03-21T20:08:06.930Z,3.28
2023-03-21T20:10:38.098Z,2.20
2023-03-21T20:13:06.469Z,2.10
2023-03-21T20:15:45.836Z,2.30
2023-03-21T20:18:15.348Z,3.63
2023-03-21T20:20:43.212Z,1.88
2023-03-21T20:23:15.858Z,2.53
2023-03-21T20:25:45.915Z,1.63
2023-03-21T20:28:23.819Z,1.92
2023-03-21T20:30:58.219Z,2.10
2023-03-21T20:33:26.783Z,1.92
2023-03-21T20:38:47.961Z,2.15
2023-03-21T20:41:16.548Z,2.67
2023-03-21T20:46:34.823Z,2.00
2023-03-21T20:49:06.581Z,1.88
2023-03-21T20:54:24.422Z,2.55
2023-03-21T20:56:52.459Z,2.45
2023-03-21T20:59:27.050Z,1.77
2023-03-21T21:01:59.996Z,1.75
2023-03-21T21:04:48.105Z,2.03
2023-03-21T21:07:21.022Z,2.33
2023-03-21T21:09:50.290Z,2.13
2023-03-21T21:12:19.159Z,3.33
2023-03-21T21:14:48.091Z,2.17
2023-03-21T21:17:40.375Z,2.17
2023-03-21T21:20:16.304Z,3.53
2023-03-21T21:22:58.103Z,1.92
2023-03-21T21:25:27.697Z,2.45
2023-03-21T21:28:05.194Z,1.90
2023-03-21T21:30:33.585Z,2.90
2023-03-21T21:33:02.936Z,2.08
2023-03-21T21:35:33.510Z,2.15
2023-03-21T21:38:01.440Z,1.52
2023-03-21T21:40:29.501Z,2.63
2023-03-21T21:43:03.158Z,1.95
2023-03-21T21:45:31.448Z,1.63
2023-03-21T21:47:59.469Z,2.42
2023-03-21T21:50:29.333Z,2.33
2023-03-21T21:52:57.783Z,2.00
2023-03-21T21:55:30.595Z,2.47
2023-03-21T21:57:58.956Z,2.55
2023-03-21T22:00:28.187Z,1.80
2023-03-21T22:03:00.202Z,1.83
2023-03-21T22:05:29.937Z,2.47
2023-03-21T22:08:01.180Z,1.73
2023-03-21T22:10:35.381Z,2.13
2023-03-21T22:13:03.308Z,3.05
2023-03-21T22:15:33.046Z,1.60
2023-03-21T22:18:01.046Z,2.17
2023-03-21T22:20:30.343Z,1.90
2023-03-21T22:22:59.571Z,2.72
2023-03-21T22:25:27.986Z,3.00
2023-03-21T22:27:55.936Z,2.75
2023-03-21T22:30:24.659Z,1.50
2023-03-21T22:33:08.121Z,1.10
2023-03-21T22:35:38.919Z,1.80
2023-03-21T22:38:07.027Z,2.17
2023-03-21T22:40:35.016Z,2.00
2023-03-21T22:43:03.138Z,2.15
2023-03-21T22:45:31.059Z,1.63
2023-03-21T22:47:59.758Z,2.10
2023-03-21T22:50:30.152Z,2.60
2023-03-21T22:52:59.421Z,1.65
2023-03-21T22:55:27.375Z,2.42
2023-03-21T22:57:55.636Z,1.10
2023-03-21T23:00:23.644Z,2.78
2023-03-21T23:02:55.052Z,2.20
2023-03-21T23:05:22.965Z,1.67
2023-03-21T23:07:50.944Z,1.80
2023-03-21T23:10:25.963Z,1.40
2023-03-21T23:12:53.892Z,2.17
2023-03-21T23:15:24.201Z,2.08
2023-03-21T23:17:52.152Z,2.08
2023-03-21T23:20:37.200Z,1.20
2023-03-21T23:23:05.995Z,2.08
2023-03-21T23:25:45.464Z,1.23
2023-03-21T23:28:13.416Z,1.92
2023-03-21T23:30:41.613Z,2.20
2023-03-21T23:33:12.967Z,1.50
2023-03-21T23:35:43.575Z,4.60
2023-03-21T23:38:11.552Z,1.50
2023-03-21T23:40:41.463Z,1.67
2023-03-21T23:43:11.575Z,2.53
2023-03-21T23:45:39.473Z,1.70
2023-03-21T23:48:07.703Z,2.05
2023-03-21T23:50:36.055Z,1.55
2023-03-21T23:53:04.186Z,2.38
2023-03-21T23:55:32.401Z,1.50
2023-03-21T23:58:01.667Z,2.38
